Alamogordo, NM

5:24 PM MDT on August 28, 2016 (GMT -0600)
Alamogordo-White Sands Regional

Weather History for KALM - December, 2013

Change the Weather History Date:

Wednesday, December 4, 2013

  Actual Average Record
Temperature  
Mean Temperature 58 °F -  
Max Temperature 68 °F 60 °F 74 °F (1977)
Min Temperature 48 °F 30 °F 18 °F (1957)
Degree Days  
Heating Degree Days 7    
Growing Degree Days 8 (Base 50)    
Moisture  
Dew Point 33 °F    
Average Humidity 42    
Maximum Humidity 62    
Minimum Humidity 22    
Precipitation  
Precipitation 0.00 in - - ()
Sea Level Pressure  
Sea Level Pressure 29.81 in    
Wind  
Wind Speed 12 mph (South)    
Max Wind Speed 24 mph    
Max Gust Speed 36 mph    
Visibility 10 miles    
Events      
Averages and records for this station are not official NWS values.
T = Trace of Precipitation, MM = Missing Value Source: NWS Daily Summary

Daily Weather History Graph

Daily Weather History Graph

Search for Another Location

Airport or City:

Trip Planner

Search our weather history database for the weather conditions in past years. The results will help you decide how hot, cold, wet, or windy it might be!

Date:

Astronomy

Dec. 04, 2013 Rise Set
Actual Time 6:51 AM MST 4:57 PM MST
Civil Twilight 6:24 AM MST 5:24 PM MST
Nautical Twilight 5:53 AM MST 5:54 PM MST
Astronomical Twilight 5:23 AM MST 6:24 PM MST
Moon 8:23 AM MST (12/4) 7:08 PM MST (12/4)
Length of Visible Light 11h 00m
Length of Day
10h 06m
Waxing Crescent, 5% of the Moon is Illuminated
Dec 4
Waxing Crescent
Dec 9
First Quarter
Dec 17
Full
Dec 25
Last Quarter
Jan 1
New

Hourly Weather History & Observations

Time (MST) Temp. Dew Point Humidity Pressure Visibility Wind Dir Wind Speed Gust Speed Precip Events Conditions
12:15 AM 48.2 °F 26.6 °F 43% 29.81 in 10.0 mi SE 8.1 mph - N/A   Clear
12:35 AM 50.0 °F 28.4 °F 43% 29.80 in 10.0 mi SSE 8.1 mph - N/A   Clear
12:55 AM 50.0 °F 28.4 °F 43% 29.81 in 10.0 mi South 6.9 mph - N/A   Clear
1:15 AM 48.2 °F 32.0 °F 54% 29.81 in 10.0 mi SSE 9.2 mph - N/A   Clear
1:35 AM 48.2 °F 32.0 °F 54% 29.80 in 10.0 mi SSE 10.4 mph - N/A   Clear
1:55 AM 48.2 °F 32.0 °F 54% 29.81 in 10.0 mi SSE 9.2 mph - N/A   Clear
2:15 AM 48.2 °F 35.6 °F 62% 29.80 in 10.0 mi SSE 11.5 mph - N/A   Partly Cloudy
2:35 AM 50.0 °F 35.6 °F 58% 29.80 in 10.0 mi SSE 10.4 mph - N/A   Clear
2:55 AM 50.0 °F 37.4 °F 62% 29.80 in 10.0 mi SSE 11.5 mph - N/A   Clear
3:15 AM 51.8 °F 37.4 °F 58% 29.80 in 10.0 mi SSE 13.8 mph - N/A   Clear
3:35 AM 55.4 °F 39.2 °F 54% 29.80 in 10.0 mi SSE 13.8 mph 17.3 mph N/A   Clear
3:55 AM 55.4 °F 39.2 °F 54% 29.79 in 10.0 mi SSE 13.8 mph 20.7 mph N/A   Partly Cloudy
4:15 AM 55.4 °F 39.2 °F 54% 29.79 in 10.0 mi SSE 13.8 mph - N/A   Scattered Clouds
4:35 AM 53.6 °F 39.2 °F 58% 29.78 in 10.0 mi SE 13.8 mph - N/A   Scattered Clouds
4:55 AM 55.4 °F 39.2 °F 54% 29.78 in 10.0 mi SSE 12.7 mph - N/A   Scattered Clouds
5:15 AM 55.4 °F 39.2 °F 54% 29.79 in 10.0 mi SSE 10.4 mph - N/A   Partly Cloudy
5:35 AM 53.6 °F 37.4 °F 54% 29.79 in 10.0 mi South 10.4 mph - N/A   Clear
5:55 AM 51.8 °F 37.4 °F 58% 29.79 in 10.0 mi SSE 15.0 mph 18.4 mph N/A   Clear
6:15 AM 53.6 °F 37.4 °F 54% 29.80 in 10.0 mi South 12.7 mph - N/A   Clear
6:35 AM 53.6 °F 37.4 °F 54% 29.81 in 10.0 mi SSE 9.2 mph - N/A   Partly Cloudy
6:55 AM 53.6 °F 39.2 °F 58% 29.81 in 10.0 mi South 9.2 mph - N/A   Partly Cloudy
7:15 AM 50.0 °F 37.4 °F 62% 29.81 in 10.0 mi South 10.4 mph - N/A   Partly Cloudy
7:35 AM 51.8 °F 39.2 °F 62% 29.81 in 10.0 mi South 12.7 mph - N/A   Partly Cloudy
7:55 AM 53.6 °F 39.2 °F 58% 29.82 in 10.0 mi South 10.4 mph - N/A   Partly Cloudy
8:15 AM 55.4 °F 39.2 °F 54% 29.82 in 10.0 mi South 11.5 mph - N/A   Scattered Clouds
8:35 AM 57.2 °F 39.2 °F 51% 29.83 in 10.0 mi South 10.4 mph - N/A   Mostly Cloudy
8:55 AM 57.2 °F 41.0 °F 55% 29.84 in 10.0 mi South 11.5 mph - N/A   Overcast
9:15 AM 57.2 °F 41.0 °F 55% 29.84 in 10.0 mi South 10.4 mph - N/A   Overcast
9:35 AM 59.0 °F 39.2 °F 48% 29.85 in 10.0 mi SSW 11.5 mph - N/A   Mostly Cloudy
9:55 AM 59.0 °F 41.0 °F 51% 29.84 in 10.0 mi WSW 24.2 mph 29.9 mph N/A   Partly Cloudy
10:15 AM 62.6 °F 39.2 °F 42% 29.84 in 10.0 mi WSW 20.7 mph 31.1 mph N/A   Clear
10:35 AM 62.6 °F 39.2 °F 42% 29.82 in 10.0 mi SSW 12.7 mph - N/A   Clear
10:55 AM 64.4 °F 39.2 °F 40% 29.82 in 10.0 mi SSW 13.8 mph 19.6 mph N/A   Clear
11:15 AM 64.4 °F 37.4 °F 37% 29.81 in 10.0 mi SSW 17.3 mph 26.5 mph N/A   Clear
11:35 AM 66.2 °F 37.4 °F 35% 29.81 in 10.0 mi SW 18.4 mph 25.3 mph N/A   Clear
11:55 AM 64.4 °F 37.4 °F 37% 29.80 in 10.0 mi SSW 15.0 mph - N/A   Clear
12:15 PM 64.4 °F 35.6 °F 34% 29.79 in 10.0 mi SW 15.0 mph 23.0 mph N/A   Scattered Clouds
12:35 PM 66.2 °F 35.6 °F 32% 29.78 in 10.0 mi SW 19.6 mph 26.5 mph N/A   Mostly Cloudy
12:55 PM 64.4 °F 35.6 °F 34% 29.78 in 10.0 mi SSW 10.4 mph 18.4 mph N/A   Mostly Cloudy
1:15 PM 64.4 °F 35.6 °F 34% 29.77 in 10.0 mi South 9.2 mph - N/A   Overcast
1:35 PM 66.2 °F 32.0 °F 28% 29.76 in 10.0 mi SSW 15.0 mph - N/A   Mostly Cloudy
1:55 PM 68.0 °F 32.0 °F 26% 29.76 in 10.0 mi WSW 19.6 mph 35.7 mph N/A   Mostly Cloudy
2:15 PM 68.0 °F 30.2 °F 24% 29.74 in 10.0 mi SW 19.6 mph 26.5 mph N/A   Mostly Cloudy
2:35 PM 68.0 °F 30.2 °F 24% 29.75 in 10.0 mi WSW 17.3 mph 29.9 mph N/A   Mostly Cloudy
2:55 PM 68.0 °F 28.4 °F 23% 29.75 in 10.0 mi SSW 23.0 mph 29.9 mph N/A   Mostly Cloudy
3:15 PM 68.0 °F 28.4 °F 23% 29.76 in 10.0 mi SW 19.6 mph 25.3 mph N/A   Mostly Cloudy
3:35 PM 68.0 °F 28.4 °F 23% 29.76 in 10.0 mi WSW 19.6 mph 27.6 mph N/A   Scattered Clouds
3:55 PM 66.2 °F 26.6 °F 23% 29.76 in 10.0 mi SW 10.4 mph 25.3 mph N/A   Partly Cloudy
4:15 PM 66.2 °F 26.6 °F 23% 29.75 in 10.0 mi SW 20.7 mph 29.9 mph N/A   Partly Cloudy
4:35 PM 66.2 °F 26.6 °F 23% 29.77 in 10.0 mi SW 17.3 mph 27.6 mph N/A   Scattered Clouds
4:55 PM 64.4 °F 24.8 °F 22% 29.78 in 10.0 mi SW 18.4 mph 25.3 mph N/A   Mostly Cloudy
5:15 PM 64.4 °F 24.8 °F 22% 29.79 in 10.0 mi SW 12.7 mph 20.7 mph N/A   Mostly Cloudy
5:35 PM 60.8 °F 26.6 °F 27% 29.79 in 10.0 mi SSW 11.5 mph - N/A   Mostly Cloudy
5:55 PM 59.0 °F 28.4 °F 31% 29.80 in 10.0 mi South 8.1 mph - N/A   Mostly Cloudy
6:15 PM 59.0 °F 30.2 °F 34% 29.80 in 10.0 mi South 10.4 mph - N/A   Partly Cloudy
6:35 PM 60.8 °F 28.4 °F 29% 29.82 in 10.0 mi SSW 10.4 mph 18.4 mph N/A   Clear
6:55 PM 57.2 °F 28.4 °F 33% 29.83 in 10.0 mi South 11.5 mph - N/A   Partly Cloudy
7:15 PM 59.0 °F 28.4 °F 31% 29.83 in 10.0 mi SSW 11.5 mph - N/A   Partly Cloudy
7:35 PM 57.2 °F 30.2 °F 36% 29.84 in 10.0 mi SSW 11.5 mph - N/A   Scattered Clouds
7:55 PM 57.2 °F 28.4 °F 33% 29.85 in 10.0 mi SSW 11.5 mph - N/A   Partly Cloudy
8:15 PM 59.0 °F 26.6 °F 29% 29.86 in 10.0 mi SW 9.2 mph - N/A   Clear
8:35 PM 57.2 °F 28.4 °F 33% 29.87 in 10.0 mi SW 9.2 mph - N/A   Clear
8:55 PM 55.4 °F 28.4 °F 36% 29.87 in 10.0 mi SW 9.2 mph - N/A   Clear
9:15 PM 55.4 °F 28.4 °F 36% 29.88 in 10.0 mi SSW 9.2 mph - N/A   Clear
9:35 PM 53.6 °F 30.2 °F 41% 29.89 in 10.0 mi South 9.2 mph - N/A   Clear
9:55 PM 50.0 °F 30.2 °F 47% 29.89 in 10.0 mi South 8.1 mph - N/A   Clear
10:15 PM 50.0 °F 30.2 °F 47% 29.89 in 10.0 mi SSW 6.9 mph - N/A   Clear
10:35 PM 50.0 °F 30.2 °F 47% 29.89 in 10.0 mi South 9.2 mph - N/A   Clear
10:55 PM 48.2 °F 30.2 °F 50% 29.90 in 10.0 mi SSW 9.2 mph - N/A   Clear
11:15 PM 48.2 °F 30.2 °F 50% 29.90 in 10.0 mi South 8.1 mph - N/A   Clear
11:35 PM 50.0 °F 32.0 °F 50% 29.89 in 10.0 mi South 3.5 mph - N/A   Clear
11:55 PM 50.0 °F 32.0 °F 50% 29.89 in 10.0 mi South 4.6 mph - N/A   Clear